sensor_id;sensor_type;location;lat;lon;timestamp;P1;durP1;ratioP1;P2;durP2;ratioP2
21270;SDS011;10795;50.796;3.860;2023-02-01T00:01:42;19.10;;;7.07;;
21270;SDS011;10795;50.796;3.860;2023-02-01T00:04:08;20.73;;;7.45;;
21270;SDS011;10795;50.796;3.860;2023-02-01T00:06:34;25.20;;;6.57;;
21270;SDS011;10795;50.796;3.860;2023-02-01T00:09:00;15.93;;;5.68;;
21270;SDS011;10795;50.796;3.860;2023-02-01T00:11:26;17.58;;;6.00;;
21270;SDS011;10795;50.796;3.860;2023-02-01T00:13:52;20.13;;;6.55;;
21270;SDS011;10795;50.796;3.860;2023-02-01T00:16:19;22.05;;;5.68;;
21270;SDS011;10795;50.796;3.860;2023-02-01T00:18:50;20.92;;;5.20;;
21270;SDS011;10795;50.796;3.860;2023-02-01T00:21:21;16.35;;;4.95;;
21270;SDS011;10795;50.796;3.860;2023-02-01T00:23:47;14.90;;;4.45;;
21270;SDS011;10795;50.796;3.860;2023-02-01T00:26:14;19.85;;;4.88;;
21270;SDS011;10795;50.796;3.860;2023-02-01T00:29:01;14.80;;;4.20;;
21270;SDS011;10795;50.796;3.860;2023-02-01T00:31:29;18.73;;;4.28;;
21270;SDS011;10795;50.796;3.860;2023-02-01T00:33:55;19.58;;;4.18;;
21270;SDS011;10795;50.796;3.860;2023-02-01T00:36:21;21.10;;;4.40;;
21270;SDS011;10795;50.796;3.860;2023-02-01T00:38:46;18.33;;;4.05;;
21270;SDS011;10795;50.796;3.860;2023-02-01T00:41:14;22.13;;;4.65;;
21270;SDS011;10795;50.796;3.860;2023-02-01T00:43:44;18.75;;;4.20;;
21270;SDS011;10795;50.796;3.860;2023-02-01T00:46:10;28.83;;;4.35;;
21270;SDS011;10795;50.796;3.860;2023-02-01T00:48:37;15.50;;;3.50;;
21270;SDS011;10795;50.796;3.860;2023-02-01T00:51:05;15.43;;;3.75;;
21270;SDS011;10795;50.796;3.860;2023-02-01T00:53:36;19.35;;;3.80;;
21270;SDS011;10795;50.796;3.860;2023-02-01T00:56:02;17.00;;;4.07;;
21270;SDS011;10795;50.796;3.860;2023-02-01T00:58:28;24.15;;;4.20;;
21270;SDS011;10795;50.796;3.860;2023-02-01T01:01:08;18.38;;;4.20;;
21270;SDS011;10795;50.796;3.860;2023-02-01T01:03:48;16.73;;;4.28;;
21270;SDS011;10795;50.796;3.860;2023-02-01T01:06:22;22.20;;;4.25;;
21270;SDS011;10795;50.796;3.860;2023-02-01T01:08:50;18.50;;;4.20;;
21270;SDS011;10795;50.796;3.860;2023-02-01T01:11:19;21.03;;;4.30;;
21270;SDS011;10795;50.796;3.860;2023-02-01T01:13:48;20.30;;;4.45;;
21270;SDS011;10795;50.796;3.860;2023-02-01T01:16:15;21.77;;;4.43;;
21270;SDS011;10795;50.796;3.860;2023-02-01T01:18:41;19.98;;;4.88;;
21270;SDS011;10795;50.796;3.860;2023-02-01T01:21:08;16.58;;;4.00;;
21270;SDS011;10795;50.796;3.860;2023-02-01T01:23:34;18.90;;;4.63;;
21270;SDS011;10795;50.796;3.860;2023-02-01T01:26:04;16.23;;;4.45;;
21270;SDS011;10795;50.796;3.860;2023-02-01T01:28:35;22.52;;;4.50;;
21270;SDS011;10795;50.796;3.860;2023-02-01T01:31:01;22.48;;;4.22;;
21270;SDS011;10795;50.796;3.860;2023-02-01T01:33:27;20.02;;;4.25;;
21270;SDS011;10795;50.796;3.860;2023-02-01T01:35:53;14.15;;;3.90;;
21270;SDS011;10795;50.796;3.860;2023-02-01T01:38:19;22.73;;;4.78;;
21270;SDS011;10795;50.796;3.860;2023-02-01T01:40:45;14.43;;;4.18;;
21270;SDS011;10795;50.796;3.860;2023-02-01T01:43:13;23.67;;;4.88;;
21270;SDS011;10795;50.796;3.860;2023-02-01T01:45:40;15.23;;;3.40;;
21270;SDS011;10795;50.796;3.860;2023-02-01T01:48:17;20.70;;;4.22;;
21270;SDS011;10795;50.796;3.860;2023-02-01T01:50:52;19.40;;;4.05;;
21270;SDS011;10795;50.796;3.860;2023-02-01T01:53:31;12.35;;;3.30;;
21270;SDS011;10795;50.796;3.860;2023-02-01T01:56:02;18.15;;;4.43;;
21270;SDS011;10795;50.796;3.860;2023-02-01T01:58:28;23.63;;;3.90;;
21270;SDS011;10795;50.796;3.860;2023-02-01T02:00:58;21.52;;;3.72;;
21270;SDS011;10795;50.796;3.860;2023-02-01T02:03:32;9.90;;;2.60;;
21270;SDS011;10795;50.796;3.860;2023-02-01T02:06:03;14.15;;;3.42;;
21270;SDS011;10795;50.796;3.860;2023-02-01T02:08:32;15.13;;;3.35;;
21270;SDS011;10795;50.796;3.860;2023-02-01T02:10:58;11.68;;;3.05;;
21270;SDS011;10795;50.796;3.860;2023-02-01T02:13:25;12.32;;;2.90;;
21270;SDS011;10795;50.796;3.860;2023-02-01T02:21:36;18.60;;;3.95;;
21270;SDS011;10795;50.796;3.860;2023-02-01T02:24:17;14.13;;;2.95;;
21270;SDS011;10795;50.796;3.860;2023-02-01T02:41:01;15.55;;;3.10;;
21270;SDS011;10795;50.796;3.860;2023-02-01T02:43:41;23.13;;;4.28;;
21270;SDS011;10795;50.796;3.860;2023-02-01T02:46:38;17.27;;;3.47;;
21270;SDS011;10795;50.796;3.860;2023-02-01T02:49:49;26.67;;;4.05;;
21270;SDS011;10795;50.796;3.860;2023-02-01T02:52:42;24.25;;;3.83;;
21270;SDS011;10795;50.796;3.860;2023-02-01T02:55:45;22.60;;;3.50;;
21270;SDS011;10795;50.796;3.860;2023-02-01T02:58:12;20.75;;;3.30;;
21270;SDS011;10795;50.796;3.860;2023-02-01T03:00:59;16.95;;;3.10;;
21270;SDS011;10795;50.796;3.860;2023-02-01T03:03:45;21.52;;;3.47;;
21270;SDS011;10795;50.796;3.860;2023-02-01T03:06:35;18.67;;;3.13;;
21270;SDS011;10795;50.796;3.860;2023-02-01T03:09:04;8.23;;;2.03;;
21270;SDS011;10795;50.796;3.860;2023-02-01T03:11:39;17.85;;;3.95;;
21270;SDS011;10795;50.796;3.860;2023-02-01T03:14:26;16.73;;;3.58;;
21270;SDS011;10795;50.796;3.860;2023-02-01T03:17:00;21.75;;;3.35;;
21270;SDS011;10795;50.796;3.860;2023-02-01T03:19:35;15.23;;;3.75;;
21270;SDS011;10795;50.796;3.860;2023-02-01T03:22:12;20.67;;;3.28;;
21270;SDS011;10795;50.796;3.860;2023-02-01T03:24:46;20.90;;;3.90;;
21270;SDS011;10795;50.796;3.860;2023-02-01T03:27:27;23.88;;;4.03;;
21270;SDS011;10795;50.796;3.860;2023-02-01T03:30:04;19.17;;;3.13;;
21270;SDS011;10795;50.796;3.860;2023-02-01T03:32:53;15.90;;;3.97;;
21270;SDS011;10795;50.796;3.860;2023-02-01T03:38:08;18.95;;;3.33;;
21270;SDS011;10795;50.796;3.860;2023-02-01T03:40:41;14.27;;;2.60;;
21270;SDS011;10795;50.796;3.860;2023-02-01T03:43:14;13.70;;;2.33;;
21270;SDS011;10795;50.796;3.860;2023-02-01T03:45:44;17.02;;;3.38;;
21270;SDS011;10795;50.796;3.860;2023-02-01T03:48:15;8.00;;;2.22;;
21270;SDS011;10795;50.796;3.860;2023-02-01T03:50:48;19.73;;;2.92;;
21270;SDS011;10795;50.796;3.860;2023-02-01T03:53:19;19.67;;;3.33;;
21270;SDS011;10795;50.796;3.860;2023-02-01T03:55:48;12.30;;;3.15;;
21270;SDS011;10795;50.796;3.860;2023-02-01T03:58:18;21.77;;;3.20;;
21270;SDS011;10795;50.796;3.860;2023-02-01T04:00:50;14.37;;;3.07;;
21270;SDS011;10795;50.796;3.860;2023-02-01T04:03:21;13.93;;;2.55;;
21270;SDS011;10795;50.796;3.860;2023-02-01T04:05:48;18.80;;;2.72;;
21270;SDS011;10795;50.796;3.860;2023-02-01T04:08:15;12.45;;;2.80;;
21270;SDS011;10795;50.796;3.860;2023-02-01T04:10:41;11.68;;;2.90;;
21270;SDS011;10795;50.796;3.860;2023-02-01T04:13:08;21.20;;;3.45;;
21270;SDS011;10795;50.796;3.860;2023-02-01T04:15:34;18.00;;;3.60;;
21270;SDS011;10795;50.796;3.860;2023-02-01T04:18:00;14.05;;;2.53;;
21270;SDS011;10795;50.796;3.860;2023-02-01T04:20:26;15.63;;;2.58;;
21270;SDS011;10795;50.796;3.860;2023-02-01T04:22:52;18.58;;;3.10;;
21270;SDS011;10795;50.796;3.860;2023-02-01T04:25:18;16.90;;;3.25;;
21270;SDS011;10795;50.796;3.860;2023-02-01T04:27:45;21.00;;;3.50;;
21270;SDS011;10795;50.796;3.860;2023-02-01T04:30:11;15.18;;;2.25;;
21270;SDS011;10795;50.796;3.860;2023-02-01T04:32:38;19.90;;;3.03;;
21270;SDS011;10795;50.796;3.860;2023-02-01T04:35:05;18.67;;;2.78;;
21270;SDS011;10795;50.796;3.860;2023-02-01T04:37:31;18.92;;;3.55;;
21270;SDS011;10795;50.796;3.860;2023-02-01T04:39:57;13.18;;;2.83;;
21270;SDS011;10795;50.796;3.860;2023-02-01T04:42:23;17.85;;;3.47;;
21270;SDS011;10795;50.796;3.860;2023-02-01T04:44:49;20.98;;;3.25;;
21270;SDS011;10795;50.796;3.860;2023-02-01T04:47:15;13.02;;;2.80;;
21270;SDS011;10795;50.796;3.860;2023-02-01T04:49:41;19.38;;;3.17;;
21270;SDS011;10795;50.796;3.860;2023-02-01T04:52:07;12.60;;;2.67;;
21270;SDS011;10795;50.796;3.860;2023-02-01T04:54:33;19.92;;;3.65;;
21270;SDS011;10795;50.796;3.860;2023-02-01T04:56:59;15.98;;;2.38;;
21270;SDS011;10795;50.796;3.860;2023-02-01T04:59:25;19.10;;;3.38;;
21270;SDS011;10795;50.796;3.860;2023-02-01T05:01:53;19.13;;;3.25;;
21270;SDS011;10795;50.796;3.860;2023-02-01T05:04:19;14.77;;;2.92;;
21270;SDS011;10795;50.796;3.860;2023-02-01T05:06:45;21.17;;;3.15;;
21270;SDS011;10795;50.796;3.860;2023-02-01T05:09:10;20.90;;;3.97;;
21270;SDS011;10795;50.796;3.860;2023-02-01T05:11:37;18.13;;;2.92;;
21270;SDS011;10795;50.796;3.860;2023-02-01T05:14:21;18.98;;;3.15;;
21270;SDS011;10795;50.796;3.860;2023-02-01T05:16:47;13.13;;;3.03;;
21270;SDS011;10795;50.796;3.860;2023-02-01T05:19:13;14.98;;;2.92;;
21270;SDS011;10795;50.796;3.860;2023-02-01T05:21:39;17.77;;;3.25;;
21270;SDS011;10795;50.796;3.860;2023-02-01T05:24:04;19.73;;;2.85;;
21270;SDS011;10795;50.796;3.860;2023-02-01T05:26:38;19.67;;;2.70;;
21270;SDS011;10795;50.796;3.860;2023-02-01T05:29:05;21.95;;;3.72;;
21270;SDS011;10795;50.796;3.860;2023-02-01T05:31:32;22.77;;;3.10;;
21270;SDS011;10795;50.796;3.860;2023-02-01T05:33:58;17.98;;;3.17;;
21270;SDS011;10795;50.796;3.860;2023-02-01T05:36:24;20.70;;;3.10;;
21270;SDS011;10795;50.796;3.860;2023-02-01T05:38:50;17.73;;;3.00;;
21270;SDS011;10795;50.796;3.860;2023-02-01T05:41:15;19.83;;;3.72;;
21270;SDS011;10795;50.796;3.860;2023-02-01T05:43:41;14.73;;;3.17;;
21270;SDS011;10795;50.796;3.860;2023-02-01T05:46:07;16.55;;;3.15;;
21270;SDS011;10795;50.796;3.860;2023-02-01T05:48:35;18.75;;;3.30;;
21270;SDS011;10795;50.796;3.860;2023-02-01T05:51:01;18.92;;;3.08;;
21270;SDS011;10795;50.796;3.860;2023-02-01T05:53:27;21.20;;;3.60;;
21270;SDS011;10795;50.796;3.860;2023-02-01T05:55:53;19.00;;;3.13;;
21270;SDS011;10795;50.796;3.860;2023-02-01T05:58:18;22.23;;;3.22;;
21270;SDS011;10795;50.796;3.860;2023-02-01T06:00:44;17.58;;;3.20;;
21270;SDS011;10795;50.796;3.860;2023-02-01T06:03:10;22.67;;;3.90;;
21270;SDS011;10795;50.796;3.860;2023-02-01T06:05:36;18.67;;;3.13;;
21270;SDS011;10795;50.796;3.860;2023-02-01T06:08:02;24.17;;;3.42;;
21270;SDS011;10795;50.796;3.860;2023-02-01T06:10:28;24.13;;;3.05;;
21270;SDS011;10795;50.796;3.860;2023-02-01T06:12:53;19.85;;;3.55;;
21270;SDS011;10795;50.796;3.860;2023-02-01T06:15:19;19.88;;;3.03;;
21270;SDS011;10795;50.796;3.860;2023-02-01T06:17:45;21.42;;;3.28;;
21270;SDS011;10795;50.796;3.860;2023-02-01T06:20:12;19.58;;;3.13;;
21270;SDS011;10795;50.796;3.860;2023-02-01T06:22:39;23.27;;;3.15;;
21270;SDS011;10795;50.796;3.860;2023-02-01T06:25:05;14.88;;;3.05;;
21270;SDS011;10795;50.796;3.860;2023-02-01T06:27:32;25.75;;;3.75;;
21270;SDS011;10795;50.796;3.860;2023-02-01T06:29:58;14.18;;;2.50;;
21270;SDS011;10795;50.796;3.860;2023-02-01T06:32:24;22.27;;;3.53;;
21270;SDS011;10795;50.796;3.860;2023-02-01T06:34:50;23.35;;;3.70;;
21270;SDS011;10795;50.796;3.860;2023-02-01T06:37:21;21.88;;;3.80;;
21270;SDS011;10795;50.796;3.860;2023-02-01T06:39:48;18.98;;;3.55;;
21270;SDS011;10795;50.796;3.860;2023-02-01T06:42:14;23.55;;;3.33;;
21270;SDS011;10795;50.796;3.860;2023-02-01T06:44:40;16.63;;;3.53;;
21270;SDS011;10795;50.796;3.860;2023-02-01T06:47:05;28.38;;;3.53;;
21270;SDS011;10795;50.796;3.860;2023-02-01T06:49:31;15.50;;;3.17;;
21270;SDS011;10795;50.796;3.860;2023-02-01T06:51:57;19.40;;;3.50;;
21270;SDS011;10795;50.796;3.860;2023-02-01T06:54:25;21.83;;;3.58;;
21270;SDS011;10795;50.796;3.860;2023-02-01T06:56:52;15.43;;;3.08;;
21270;SDS011;10795;50.796;3.860;2023-02-01T06:59:17;20.55;;;3.90;;
21270;SDS011;10795;50.796;3.860;2023-02-01T07:01:43;25.63;;;4.32;;
21270;SDS011;10795;50.796;3.860;2023-02-01T07:04:12;23.13;;;4.22;;
21270;SDS011;10795;50.796;3.860;2023-02-01T07:06:38;17.25;;;3.65;;
21270;SDS011;10795;50.796;3.860;2023-02-01T07:09:04;17.55;;;3.33;;
21270;SDS011;10795;50.796;3.860;2023-02-01T07:11:30;21.42;;;3.28;;
21270;SDS011;10795;50.796;3.860;2023-02-01T07:13:57;19.75;;;3.85;;
21270;SDS011;10795;50.796;3.860;2023-02-01T07:16:23;17.83;;;3.63;;
21270;SDS011;10795;50.796;3.860;2023-02-01T07:18:50;24.48;;;3.60;;
21270;SDS011;10795;50.796;3.860;2023-02-01T07:21:17;25.55;;;4.63;;
21270;SDS011;10795;50.796;3.860;2023-02-01T07:23:43;18.75;;;3.45;;
21270;SDS011;10795;50.796;3.860;2023-02-01T07:26:10;20.20;;;3.33;;
21270;SDS011;10795;50.796;3.860;2023-02-01T07:28:40;23.10;;;2.88;;
21270;SDS011;10795;50.796;3.860;2023-02-01T07:31:07;19.27;;;3.15;;
21270;SDS011;10795;50.796;3.860;2023-02-01T07:33:34;24.60;;;4.03;;
21270;SDS011;10795;50.796;3.860;2023-02-01T07:36:02;18.45;;;3.63;;
21270;SDS011;10795;50.796;3.860;2023-02-01T07:38:28;27.20;;;3.50;;
21270;SDS011;10795;50.796;3.860;2023-02-01T07:40:58;20.67;;;3.08;;
21270;SDS011;10795;50.796;3.860;2023-02-01T07:43:28;21.88;;;3.33;;
21270;SDS011;10795;50.796;3.860;2023-02-01T07:45:54;19.60;;;3.53;;
21270;SDS011;10795;50.796;3.860;2023-02-01T07:48:21;15.25;;;3.17;;
21270;SDS011;10795;50.796;3.860;2023-02-01T07:50:47;18.63;;;3.60;;
21270;SDS011;10795;50.796;3.860;2023-02-01T07:53:13;15.82;;;2.85;;
21270;SDS011;10795;50.796;3.860;2023-02-01T07:55:39;18.20;;;3.22;;
21270;SDS011;10795;50.796;3.860;2023-02-01T07:58:05;12.13;;;2.83;;
21270;SDS011;10795;50.796;3.860;2023-02-01T08:00:32;19.73;;;3.22;;
21270;SDS011;10795;50.796;3.860;2023-02-01T08:03:16;21.08;;;2.88;;
21270;SDS011;10795;50.796;3.860;2023-02-01T08:05:42;21.75;;;3.60;;
21270;SDS011;10795;50.796;3.860;2023-02-01T08:08:07;22.63;;;2.97;;
21270;SDS011;10795;50.796;3.860;2023-02-01T08:10:33;23.65;;;3.53;;
21270;SDS011;10795;50.796;3.860;2023-02-01T08:13:00;18.48;;;3.00;;
21270;SDS011;10795;50.796;3.860;2023-02-01T08:15:27;14.85;;;2.90;;
21270;SDS011;10795;50.796;3.860;2023-02-01T08:17:54;11.50;;;2.85;;
21270;SDS011;10795;50.796;3.860;2023-02-01T08:20:20;14.32;;;3.33;;
21270;SDS011;10795;50.796;3.860;2023-02-01T08:22:52;17.83;;;3.53;;
21270;SDS011;10795;50.796;3.860;2023-02-01T08:25:18;22.50;;;3.78;;
21270;SDS011;10795;50.796;3.860;2023-02-01T08:27:44;16.67;;;3.25;;
21270;SDS011;10795;50.796;3.860;2023-02-01T08:30:11;18.00;;;3.10;;
21270;SDS011;10795;50.796;3.860;2023-02-01T08:32:37;20.42;;;3.70;;
21270;SDS011;10795;50.796;3.860;2023-02-01T08:35:03;17.48;;;2.92;;
21270;SDS011;10795;50.796;3.860;2023-02-01T08:37:29;21.15;;;2.90;;
21270;SDS011;10795;50.796;3.860;2023-02-01T08:39:56;20.77;;;3.17;;
21270;SDS011;10795;50.796;3.860;2023-02-01T08:42:21;16.80;;;3.35;;
21270;SDS011;10795;50.796;3.860;2023-02-01T08:45:06;17.88;;;2.95;;
21270;SDS011;10795;50.796;3.860;2023-02-01T08:47:33;21.73;;;3.50;;
21270;SDS011;10795;50.796;3.860;2023-02-01T08:50:00;12.57;;;3.05;;
21270;SDS011;10795;50.796;3.860;2023-02-01T08:52:25;13.13;;;2.50;;
21270;SDS011;10795;50.796;3.860;2023-02-01T08:54:51;18.88;;;2.85;;
21270;SDS011;10795;50.796;3.860;2023-02-01T08:57:17;13.20;;;3.38;;
21270;SDS011;10795;50.796;3.860;2023-02-01T08:59:43;19.13;;;3.90;;
21270;SDS011;10795;50.796;3.860;2023-02-01T09:02:13;17.58;;;3.17;;
21270;SDS011;10795;50.796;3.860;2023-02-01T09:04:40;15.60;;;3.08;;
21270;SDS011;10795;50.796;3.860;2023-02-01T09:07:07;18.83;;;4.45;;
21270;SDS011;10795;50.796;3.860;2023-02-01T09:09:33;18.20;;;2.95;;
21270;SDS011;10795;50.796;3.860;2023-02-01T09:11:59;16.70;;;2.85;;
21270;SDS011;10795;50.796;3.860;2023-02-01T09:14:25;15.35;;;3.95;;
21270;SDS011;10795;50.796;3.860;2023-02-01T09:16:51;23.90;;;4.00;;
21270;SDS011;10795;50.796;3.860;2023-02-01T09:19:17;13.63;;;2.97;;
21270;SDS011;10795;50.796;3.860;2023-02-01T09:21:42;19.50;;;2.95;;
21270;SDS011;10795;50.796;3.860;2023-02-01T09:24:11;21.90;;;3.45;;
21270;SDS011;10795;50.796;3.860;2023-02-01T09:26:37;22.42;;;3.47;;
21270;SDS011;10795;50.796;3.860;2023-02-01T09:29:03;16.27;;;2.80;;
21270;SDS011;10795;50.796;3.860;2023-02-01T09:31:35;18.75;;;3.53;;
21270;SDS011;10795;50.796;3.860;2023-02-01T09:34:01;12.52;;;3.20;;
21270;SDS011;10795;50.796;3.860;2023-02-01T09:36:27;18.25;;;3.38;;
21270;SDS011;10795;50.796;3.860;2023-02-01T09:38:53;18.13;;;2.92;;
21270;SDS011;10795;50.796;3.860;2023-02-01T09:47:22;20.67;;;3.50;;
21270;SDS011;10795;50.796;3.860;2023-02-01T09:49:51;19.03;;;3.40;;
21270;SDS011;10795;50.796;3.860;2023-02-01T09:52:32;12.68;;;2.75;;
21270;SDS011;10795;50.796;3.860;2023-02-01T09:55:04;13.57;;;2.60;;
21270;SDS011;10795;50.796;3.860;2023-02-01T09:57:49;21.13;;;3.67;;
21270;SDS011;10795;50.796;3.860;2023-02-01T10:00:25;15.15;;;3.17;;
21270;SDS011;10795;50.796;3.860;2023-02-01T10:02:55;20.17;;;3.15;;
21270;SDS011;10795;50.796;3.860;2023-02-01T10:05:27;12.07;;;2.50;;
21270;SDS011;10795;50.796;3.860;2023-02-01T10:08:11;18.90;;;2.58;;
21270;SDS011;10795;50.796;3.860;2023-02-01T10:10:45;16.65;;;3.78;;
21270;SDS011;10795;50.796;3.860;2023-02-01T10:26:18;13.20;;;2.88;;
21270;SDS011;10795;50.796;3.860;2023-02-01T10:28:52;10.07;;;2.40;;
21270;SDS011;10795;50.796;3.860;2023-02-01T10:31:22;13.20;;;2.13;;
21270;SDS011;10795;50.796;3.860;2023-02-01T10:33:53;13.27;;;2.30;;
21270;SDS011;10795;50.796;3.860;2023-02-01T10:36:33;10.65;;;2.28;;
21270;SDS011;10795;50.796;3.860;2023-02-01T10:39:02;9.05;;;2.47;;
21270;SDS011;10795;50.796;3.860;2023-02-01T10:41:33;11.80;;;2.22;;
21270;SDS011;10795;50.796;3.860;2023-02-01T10:44:03;16.45;;;2.53;;
21270;SDS011;10795;50.796;3.860;2023-02-01T10:46:33;7.88;;;1.85;;
21270;SDS011;10795;50.796;3.860;2023-02-01T10:49:00;8.90;;;1.73;;
21270;SDS011;10795;50.796;3.860;2023-02-01T10:54:14;12.55;;;2.38;;
21270;SDS011;10795;50.796;3.860;2023-02-01T10:56:45;12.50;;;1.98;;
21270;SDS011;10795;50.796;3.860;2023-02-01T10:59:17;9.75;;;1.75;;
21270;SDS011;10795;50.796;3.860;2023-02-01T11:01:47;12.38;;;2.47;;
21270;SDS011;10795;50.796;3.860;2023-02-01T11:04:14;12.57;;;2.00;;
21270;SDS011;10795;50.796;3.860;2023-02-01T11:06:46;9.05;;;2.25;;
21270;SDS011;10795;50.796;3.860;2023-02-01T11:09:17;11.07;;;2.38;;
21270;SDS011;10795;50.796;3.860;2023-02-01T11:14:15;19.48;;;2.25;;
21270;SDS011;10795;50.796;3.860;2023-02-01T11:16:46;9.48;;;1.65;;
21270;SDS011;10795;50.796;3.860;2023-02-01T11:19:18;9.88;;;2.83;;
21270;SDS011;10795;50.796;3.860;2023-02-01T11:21:44;10.90;;;2.13;;
21270;SDS011;10795;50.796;3.860;2023-02-01T11:26:55;13.52;;;2.10;;
21270;SDS011;10795;50.796;3.860;2023-02-01T11:29:22;6.90;;;2.03;;
21270;SDS011;10795;50.796;3.860;2023-02-01T11:31:58;10.23;;;2.10;;
21270;SDS011;10795;50.796;3.860;2023-02-01T11:34:25;8.85;;;1.50;;
21270;SDS011;10795;50.796;3.860;2023-02-01T11:36:59;9.20;;;1.92;;
21270;SDS011;10795;50.796;3.860;2023-02-01T11:39:29;14.13;;;2.38;;
21270;SDS011;10795;50.796;3.860;2023-02-01T11:42:12;9.88;;;1.70;;
21270;SDS011;10795;50.796;3.860;2023-02-01T11:44:41;13.48;;;2.13;;
21270;SDS011;10795;50.796;3.860;2023-02-01T11:47:27;8.10;;;1.60;;
21270;SDS011;10795;50.796;3.860;2023-02-01T11:50:00;9.23;;;2.00;;
21270;SDS011;10795;50.796;3.860;2023-02-01T11:52:35;7.20;;;1.70;;
21270;SDS011;10795;50.796;3.860;2023-02-01T12:00:32;9.73;;;1.75;;
21270;SDS011;10795;50.796;3.860;2023-02-01T12:06:06;8.55;;;1.48;;
21270;SDS011;10795;50.796;3.860;2023-02-01T12:34:36;12.68;;;1.73;;
21270;SDS011;10795;50.796;3.860;2023-02-01T12:42:13;9.60;;;1.48;;
21270;SDS011;10795;50.796;3.860;2023-02-01T12:45:14;7.82;;;1.70;;
21270;SDS011;10795;50.796;3.860;2023-02-01T12:50:50;8.93;;;1.50;;
21270;SDS011;10795;50.796;3.860;2023-02-01T12:53:35;10.63;;;1.95;;
21270;SDS011;10795;50.796;3.860;2023-02-01T12:56:12;6.18;;;1.48;;
21270;SDS011;10795;50.796;3.860;2023-02-01T12:59:01;4.35;;;1.10;;
21270;SDS011;10795;50.796;3.860;2023-02-01T13:01:37;8.90;;;1.83;;
21270;SDS011;10795;50.796;3.860;2023-02-01T13:04:10;11.30;;;2.08;;
21270;SDS011;10795;50.796;3.860;2023-02-01T13:06:43;8.50;;;1.52;;
21270;SDS011;10795;50.796;3.860;2023-02-01T13:11:53;8.57;;;1.67;;
21270;SDS011;10795;50.796;3.860;2023-02-01T13:14:26;6.97;;;1.52;;
21270;SDS011;10795;50.796;3.860;2023-02-01T13:19:35;10.55;;;1.70;;
21270;SDS011;10795;50.796;3.860;2023-02-01T13:22:34;9.10;;;1.42;;
21270;SDS011;10795;50.796;3.860;2023-02-01T13:27:35;11.30;;;1.70;;
21270;SDS011;10795;50.796;3.860;2023-02-01T13:30:23;8.38;;;1.80;;
21270;SDS011;10795;50.796;3.860;2023-02-01T13:42:13;12.48;;;1.63;;
21270;SDS011;10795;50.796;3.860;2023-02-01T13:47:12;9.60;;;1.70;;
21270;SDS011;10795;50.796;3.860;2023-02-01T13:49:49;8.18;;;1.65;;
21270;SDS011;10795;50.796;3.860;2023-02-01T13:52:21;7.88;;;1.50;;
21270;SDS011;10795;50.796;3.860;2023-02-01T13:57:41;6.60;;;1.63;;
21270;SDS011;10795;50.796;3.860;2023-02-01T14:03:02;9.82;;;1.60;;
21270;SDS011;10795;50.796;3.860;2023-02-01T14:23:41;10.43;;;1.70;;
21270;SDS011;10795;50.796;3.860;2023-02-01T14:26:14;8.33;;;1.70;;
21270;SDS011;10795;50.796;3.860;2023-02-01T14:28:50;7.85;;;1.20;;
21270;SDS011;10795;50.796;3.860;2023-02-01T14:31:42;12.52;;;1.67;;
21270;SDS011;10795;50.796;3.860;2023-02-01T14:34:11;7.63;;;1.38;;
21270;SDS011;10795;50.796;3.860;2023-02-01T14:36:49;12.73;;;1.67;;
21270;SDS011;10795;50.796;3.860;2023-02-01T14:44:54;10.43;;;1.75;;
21270;SDS011;10795;50.796;3.860;2023-02-01T14:47:40;5.22;;;1.23;;
21270;SDS011;10795;50.796;3.860;2023-02-01T14:55:56;8.55;;;1.45;;
21270;SDS011;10795;50.796;3.860;2023-02-01T15:01:38;9.68;;;2.13;;
21270;SDS011;10795;50.796;3.860;2023-02-01T15:09:15;9.50;;;1.90;;
21270;SDS011;10795;50.796;3.860;2023-02-01T15:14:22;9.20;;;1.60;;
21270;SDS011;10795;50.796;3.860;2023-02-01T15:16:48;11.23;;;2.03;;
21270;SDS011;10795;50.796;3.860;2023-02-01T15:19:21;14.40;;;2.85;;
21270;SDS011;10795;50.796;3.860;2023-02-01T15:21:49;11.85;;;1.90;;
21270;SDS011;10795;50.796;3.860;2023-02-01T15:24:30;15.52;;;2.72;;
21270;SDS011;10795;50.796;3.860;2023-02-01T15:27:02;10.50;;;1.75;;
21270;SDS011;10795;50.796;3.860;2023-02-01T15:29:29;11.55;;;1.83;;
21270;SDS011;10795;50.796;3.860;2023-02-01T15:31:58;9.57;;;1.65;;
21270;SDS011;10795;50.796;3.860;2023-02-01T15:34:33;10.55;;;2.38;;
21270;SDS011;10795;50.796;3.860;2023-02-01T15:37:13;9.48;;;2.08;;
21270;SDS011;10795;50.796;3.860;2023-02-01T15:42:57;8.85;;;1.80;;
21270;SDS011;10795;50.796;3.860;2023-02-01T15:45:28;18.65;;;2.42;;
21270;SDS011;10795;50.796;3.860;2023-02-01T15:47:57;7.07;;;1.90;;
21270;SDS011;10795;50.796;3.860;2023-02-01T15:50:24;14.98;;;2.35;;
21270;SDS011;10795;50.796;3.860;2023-02-01T15:52:53;11.13;;;1.92;;
21270;SDS011;10795;50.796;3.860;2023-02-01T15:55:31;17.23;;;3.10;;
21270;SDS011;10795;50.796;3.860;2023-02-01T15:58:14;17.48;;;2.63;;
21270;SDS011;10795;50.796;3.860;2023-02-01T16:00:49;6.63;;;1.63;;
21270;SDS011;10795;50.796;3.860;2023-02-01T16:06:08;17.83;;;2.85;;
21270;SDS011;10795;50.796;3.860;2023-02-01T16:08:59;17.73;;;2.40;;
21270;SDS011;10795;50.796;3.860;2023-02-01T16:11:32;14.05;;;1.85;;
21270;SDS011;10795;50.796;3.860;2023-02-01T16:14:18;13.27;;;2.42;;
21270;SDS011;10795;50.796;3.860;2023-02-01T16:16:45;12.02;;;2.40;;
21270;SDS011;10795;50.796;3.860;2023-02-01T16:19:11;16.67;;;1.95;;
21270;SDS011;10795;50.796;3.860;2023-02-01T16:21:37;16.05;;;2.67;;
21270;SDS011;10795;50.796;3.860;2023-02-01T16:24:03;15.55;;;2.03;;
21270;SDS011;10795;50.796;3.860;2023-02-01T16:26:30;12.50;;;2.40;;
21270;SDS011;10795;50.796;3.860;2023-02-01T16:28:57;17.60;;;2.78;;
21270;SDS011;10795;50.796;3.860;2023-02-01T16:31:27;13.73;;;2.50;;
21270;SDS011;10795;50.796;3.860;2023-02-01T16:33:55;19.75;;;3.22;;
21270;SDS011;10795;50.796;3.860;2023-02-01T16:36:21;14.07;;;2.67;;
21270;SDS011;10795;50.796;3.860;2023-02-01T16:38:47;20.48;;;3.15;;
21270;SDS011;10795;50.796;3.860;2023-02-01T16:41:14;15.82;;;2.75;;
21270;SDS011;10795;50.796;3.860;2023-02-01T16:43:43;16.58;;;2.90;;
21270;SDS011;10795;50.796;3.860;2023-02-01T16:46:12;14.00;;;2.63;;
21270;SDS011;10795;50.796;3.860;2023-02-01T16:48:41;11.50;;;2.60;;
21270;SDS011;10795;50.796;3.860;2023-02-01T16:51:11;15.38;;;2.45;;
21270;SDS011;10795;50.796;3.860;2023-02-01T16:53:39;18.88;;;3.03;;
21270;SDS011;10795;50.796;3.860;2023-02-01T16:56:18;12.02;;;2.83;;
21270;SDS011;10795;50.796;3.860;2023-02-01T16:58:49;13.20;;;2.65;;
21270;SDS011;10795;50.796;3.860;2023-02-01T17:01:16;17.67;;;3.25;;
21270;SDS011;10795;50.796;3.860;2023-02-01T17:03:43;19.25;;;3.22;;
21270;SDS011;10795;50.796;3.860;2023-02-01T17:06:11;17.30;;;3.33;;
21270;SDS011;10795;50.796;3.860;2023-02-01T17:08:45;16.38;;;3.22;;
21270;SDS011;10795;50.796;3.860;2023-02-01T17:11:15;23.30;;;4.00;;
21270;SDS011;10795;50.796;3.860;2023-02-01T17:13:41;16.00;;;3.72;;
21270;SDS011;10795;50.796;3.860;2023-02-01T17:21:24;20.55;;;3.90;;
21270;SDS011;10795;50.796;3.860;2023-02-01T17:23:52;28.05;;;3.47;;
21270;SDS011;10795;50.796;3.860;2023-02-01T17:26:18;21.10;;;3.95;;
21270;SDS011;10795;50.796;3.860;2023-02-01T17:28:45;15.27;;;3.20;;
21270;SDS011;10795;50.796;3.860;2023-02-01T17:31:14;17.60;;;3.67;;
21270;SDS011;10795;50.796;3.860;2023-02-01T17:33:41;18.67;;;4.28;;
21270;SDS011;10795;50.796;3.860;2023-02-01T17:36:12;18.45;;;3.88;;
21270;SDS011;10795;50.796;3.860;2023-02-01T17:38:39;15.80;;;3.45;;
21270;SDS011;10795;50.796;3.860;2023-02-01T17:41:05;25.15;;;4.57;;
21270;SDS011;10795;50.796;3.860;2023-02-01T17:43:31;22.08;;;4.03;;